createdAt,value
2018-08-02T00:04:52.964Z,78.10
2018-08-02T00:07:20.832Z,78.60
2018-08-02T00:12:16.204Z,79.30
2018-08-02T00:14:44.175Z,78.90
2018-08-02T00:17:11.684Z,78.70
2018-08-02T00:19:39.598Z,78.50
2018-08-02T00:22:08.125Z,80.60
2018-08-02T00:24:36.082Z,79.90
2018-08-02T00:27:03.606Z,80.30
2018-08-02T00:29:31.096Z,80.30
2018-08-02T00:31:59.149Z,80.90
2018-08-02T00:34:27.324Z,79.30
2018-08-02T00:36:55.310Z,79.20
2018-08-02T00:39:23.361Z,79.60
2018-08-02T00:44:18.768Z,77.90
2018-08-02T00:46:46.287Z,78.10
2018-08-02T00:49:13.791Z,77.50
2018-08-02T00:51:41.626Z,77.40
2018-08-02T00:54:09.138Z,77.00
2018-08-02T00:56:36.692Z,77.20
2018-08-02T00:59:04.250Z,76.80
2018-08-02T01:01:32.418Z,76.80
2018-08-02T01:04:00.607Z,76.70
2018-08-02T01:06:28.096Z,76.60
2018-08-02T01:08:55.612Z,77.20
2018-08-02T01:11:23.175Z,76.70
2018-08-02T01:13:51.110Z,76.90
2018-08-02T01:18:47.365Z,78.10
2018-08-02T01:21:14.979Z,76.50
2018-08-02T01:23:43.018Z,76.70
2018-08-02T01:28:38.447Z,78.90
2018-08-02T01:31:07.017Z,79.50
2018-08-02T01:33:34.901Z,79.00
2018-08-02T01:36:02.410Z,78.80
2018-08-02T01:38:30.514Z,78.90
2018-08-02T01:40:58.064Z,78.90
2018-08-02T01:43:25.619Z,79.00
2018-08-02T01:45:53.850Z,79.50
2018-08-02T01:48:21.389Z,80.70
2018-08-02T01:50:49.426Z,80.90
2018-08-02T01:53:16.943Z,80.70
2018-08-02T01:55:44.458Z,81.20
2018-08-02T01:58:12.606Z,80.30
2018-08-02T02:00:40.132Z,79.90
2018-08-02T02:03:08.082Z,79.50
2018-08-02T02:05:36.341Z,79.30
2018-08-02T02:08:03.943Z,79.80
2018-08-02T02:10:31.989Z,80.50
2018-08-02T02:13:00.422Z,80.40
2018-08-02T02:15:29.542Z,80.10
2018-08-02T02:17:57.076Z,79.90
2018-08-02T02:20:24.602Z,79.70
2018-08-02T02:22:52.470Z,79.60
2018-08-02T02:25:20.356Z,79.90
2018-08-02T02:27:47.832Z,79.50
2018-08-02T02:30:15.339Z,79.70
2018-08-02T02:32:43.663Z,79.20
2018-08-02T02:35:11.184Z,79.20
2018-08-02T02:37:39.250Z,81.50
2018-08-02T02:40:07.641Z,81.10
2018-08-02T02:42:35.157Z,79.90
2018-08-02T02:45:03.130Z,80.60
2018-08-02T02:47:31.151Z,81.00
2018-08-02T02:49:58.695Z,80.50
2018-08-02T02:52:26.218Z,81.00
2018-08-02T02:54:53.773Z,80.20
2018-08-02T02:57:21.680Z,80.40
2018-08-02T02:59:50.007Z,80.30
2018-08-02T03:02:17.511Z,80.60
2018-08-02T03:04:46.207Z,82.00
2018-08-02T03:07:13.735Z,80.40
2018-08-02T03:09:41.291Z,80.80
2018-08-02T03:12:08.951Z,80.20
2018-08-02T03:14:37.018Z,80.30
2018-08-02T03:17:04.572Z,80.50
2018-08-02T03:22:00.357Z,81.70
2018-08-02T03:24:28.191Z,80.30
2018-08-02T03:29:23.570Z,81.90
2018-08-02T03:31:51.923Z,80.80
2018-08-02T03:36:47.706Z,82.00
2018-08-02T03:39:15.839Z,82.00
2018-08-02T03:41:44.114Z,81.40
2018-08-02T03:44:12.322Z,81.50
2018-08-02T03:46:39.994Z,83.10
2018-08-02T03:49:07.664Z,81.60
2018-08-02T03:51:35.352Z,81.90
2018-08-02T03:54:03.500Z,82.80
2018-08-02T03:56:32.032Z,82.60
2018-08-02T03:59:00.235Z,82.80
2018-08-02T04:01:28.064Z,82.90
2018-08-02T04:03:55.592Z,82.90
2018-08-02T04:06:23.311Z,82.50
2018-08-02T04:08:50.815Z,83.50
2018-08-02T04:11:18.723Z,83.50
2018-08-02T04:13:46.595Z,83.30
2018-08-02T04:16:14.111Z,84.00
2018-08-02T04:18:57.559Z,83.30
2018-08-02T04:21:25.474Z,83.40
2018-08-02T04:23:53.570Z,82.60
2018-08-02T04:26:22.054Z,83.20
2018-08-02T04:28:50.246Z,82.60
2018-08-02T04:31:18.181Z,82.80
2018-08-02T04:33:46.086Z,83.10
2018-08-02T04:36:13.598Z,83.10
2018-08-02T04:38:41.522Z,83.70
2018-08-02T04:43:37.170Z,82.80
2018-08-02T04:48:32.338Z,83.50
2018-08-02T04:51:01.298Z,83.90
2018-08-02T04:55:57.284Z,83.60
2018-08-02T04:58:24.802Z,83.10
2018-08-02T05:00:52.419Z,83.10
2018-08-02T05:03:19.966Z,82.70
2018-08-02T05:05:47.543Z,82.60
2018-08-02T05:08:16.467Z,81.90
2018-08-02T05:10:44.405Z,81.60
2018-08-02T05:13:12.490Z,81.70
2018-08-02T05:15:40.356Z,81.80
2018-08-02T05:18:07.902Z,81.30
2018-08-02T05:20:35.434Z,82.30
2018-08-02T05:23:03.360Z,81.80
2018-08-02T05:25:31.276Z,81.40
2018-08-02T05:27:59.167Z,81.20
2018-08-02T05:32:54.646Z,80.50
2018-08-02T05:35:22.357Z,81.00
2018-08-02T05:37:50.551Z,80.60
2018-08-02T05:42:45.935Z,81.10
2018-08-02T05:45:14.183Z,81.10
2018-08-02T05:47:42.065Z,81.10
2018-08-02T05:50:10.146Z,81.80
2018-08-02T05:52:37.986Z,81.10
2018-08-02T05:55:05.526Z,80.90
2018-08-02T05:57:33.090Z,80.90
2018-08-02T06:00:00.739Z,80.90
2018-08-02T06:02:28.301Z,80.30
2018-08-02T06:04:55.887Z,79.70
2018-08-02T06:07:23.826Z,79.50
2018-08-02T06:09:51.806Z,79.10
2018-08-02T06:12:19.295Z,79.00
2018-08-02T06:14:47.229Z,79.00
2018-08-02T06:17:14.714Z,78.80
2018-08-02T06:19:42.235Z,78.50
2018-08-02T06:22:10.145Z,78.60
2018-08-02T06:24:37.718Z,78.50
2018-08-02T06:27:05.668Z,78.40
2018-08-02T06:29:33.208Z,77.90
2018-08-02T06:32:01.683Z,76.70
2018-08-02T06:34:30.039Z,77.40
2018-08-02T06:36:58.226Z,77.50
2018-08-02T06:39:26.329Z,78.00
2018-08-02T06:41:53.913Z,77.80
2018-08-02T06:44:21.834Z,78.00
2018-08-02T06:46:50.224Z,76.90
2018-08-02T06:49:18.213Z,77.50
2018-08-02T06:51:46.367Z,77.40
2018-08-02T06:54:13.894Z,76.20
2018-08-02T06:56:41.471Z,76.60
2018-08-02T06:59:09.339Z,75.40
2018-08-02T07:01:36.893Z,74.20
2018-08-02T07:04:04.769Z,74.40
2018-08-02T07:06:32.266Z,73.70
2018-08-02T07:08:59.815Z,72.50
2018-08-02T07:11:27.402Z,73.40
2018-08-02T07:13:55.250Z,72.50
2018-08-02T07:16:22.765Z,73.00
2018-08-02T07:18:57.130Z,72.70
2018-08-02T07:21:25.264Z,72.60
2018-08-02T07:23:52.835Z,72.90
2018-08-02T07:26:20.898Z,71.10
2018-08-02T07:28:48.466Z,71.40
2018-08-02T07:31:16.833Z,70.40
2018-08-02T07:33:44.819Z,70.90
2018-08-02T07:36:12.934Z,71.00
2018-08-02T07:38:41.912Z,70.60
2018-08-02T07:41:09.819Z,69.40
2018-08-02T07:43:37.791Z,69.90
2018-08-02T07:46:06.514Z,69.60
2018-08-02T07:51:02.199Z,68.10
2018-08-02T07:53:29.724Z,68.00
2018-08-02T07:58:25.402Z,66.90
2018-08-02T08:00:53.896Z,66.80
2018-08-02T08:03:21.426Z,65.90
2018-08-02T08:05:48.970Z,66.40
2018-08-02T08:08:16.529Z,66.40
2018-08-02T08:10:44.927Z,66.50
2018-08-02T08:15:41.055Z,67.20
2018-08-02T08:18:08.978Z,65.10
2018-08-02T08:20:36.534Z,67.10
2018-08-02T08:23:04.654Z,66.80
2018-08-02T08:25:32.727Z,64.50
2018-08-02T08:28:00.236Z,66.20
2018-08-02T08:32:55.820Z,64.50
2018-08-02T08:35:23.358Z,64.50
2018-08-02T08:37:51.891Z,64.50
2018-08-02T08:40:19.486Z,62.60
2018-08-02T08:42:47.553Z,62.30
2018-08-02T08:57:33.569Z,61.00
2018-08-02T09:00:01.392Z,59.80
2018-08-02T09:02:28.967Z,59.20
2018-08-02T09:04:56.470Z,59.40
2018-08-02T09:07:24.028Z,57.20
2018-08-02T09:09:52.008Z,58.60
2018-08-02T09:12:20.083Z,58.80
2018-08-02T09:14:48.075Z,58.20
2018-08-02T09:17:15.628Z,58.00
2018-08-02T09:19:43.124Z,57.70
2018-08-02T09:22:11.595Z,55.20
2018-08-02T09:24:39.149Z,55.70
2018-08-02T09:27:06.652Z,56.20
2018-08-02T09:32:03.223Z,54.50
2018-08-02T09:34:31.154Z,55.30
2018-08-02T09:36:59.141Z,55.60
2018-08-02T09:39:27.141Z,53.60
2018-08-02T09:41:55.194Z,53.50
2018-08-02T09:44:22.991Z,54.80
2018-08-02T09:46:50.716Z,53.50
2018-08-02T09:49:18.146Z,53.50
2018-08-02T09:51:46.113Z,52.80
2018-08-02T09:54:13.635Z,53.90
2018-08-02T09:56:41.605Z,53.90
2018-08-02T09:59:10.204Z,52.40
2018-08-02T10:01:44.471Z,53.50
2018-08-02T10:04:11.967Z,53.50
2018-08-02T10:06:39.504Z,53.90
2018-08-02T10:09:08.727Z,53.50
2018-08-02T10:11:36.247Z,53.90
2018-08-02T10:14:05.166Z,53.50
2018-08-02T10:16:32.704Z,54.10
2018-08-02T10:21:28.140Z,50.30
2018-08-02T10:31:19.472Z,50.90
2018-08-02T10:33:47.339Z,51.30
2018-08-02T10:36:14.827Z,50.10
2018-08-02T10:38:42.823Z,50.60
2018-08-02T10:41:10.623Z,50.90
2018-08-02T10:43:38.611Z,51.10
2018-08-02T10:46:06.261Z,51.60
2018-08-02T10:48:34.141Z,51.40
2018-08-02T10:51:01.675Z,52.40
2018-08-02T10:55:57.046Z,50.30
2018-08-02T11:03:19.463Z,49.30
2018-08-02T11:05:47.090Z,50.00
2018-08-02T11:08:14.648Z,50.80
2018-08-02T11:10:42.175Z,50.30
2018-08-02T11:13:10.141Z,49.90
2018-08-02T11:15:38.257Z,48.50
2018-08-02T11:18:05.735Z,50.10
2018-08-02T11:20:33.263Z,50.90
2018-08-02T11:23:01.187Z,49.20
2018-08-02T11:25:29.181Z,49.10
2018-08-02T11:27:56.687Z,49.30
2018-08-02T11:30:25.458Z,49.10
2018-08-02T11:32:53.485Z,50.00
2018-08-02T11:35:21.314Z,49.90
2018-08-02T11:40:17.222Z,49.60
2018-08-02T11:42:44.757Z,48.20
2018-08-02T11:45:12.996Z,48.90
2018-08-02T11:52:36.714Z,50.80
2018-08-02T11:55:04.428Z,51.00
2018-08-02T11:57:32.021Z,51.10
2018-08-02T11:59:59.530Z,50.80
2018-08-02T12:02:27.023Z,51.30
2018-08-02T12:04:54.689Z,51.60
2018-08-02T12:07:22.217Z,50.90
2018-08-02T12:09:49.761Z,51.00
2018-08-02T12:12:17.759Z,50.30
2018-08-02T12:14:45.996Z,50.20
2018-08-02T12:17:13.523Z,50.30
2018-08-02T12:19:41.089Z,50.00
2018-08-02T12:24:37.547Z,50.30
2018-08-02T12:27:05.386Z,49.20
2018-08-02T12:29:33.363Z,50.20
2018-08-02T12:32:01.336Z,49.00
2018-08-02T12:34:29.328Z,49.70
2018-08-02T12:36:57.410Z,49.40
2018-08-02T12:39:25.347Z,48.80
2018-08-02T12:44:20.786Z,46.80
2018-08-02T12:46:48.298Z,47.60
2018-08-02T12:49:16.228Z,47.80
2018-08-02T12:51:43.848Z,47.80
2018-08-02T12:54:11.353Z,47.80
2018-08-02T12:56:39.267Z,48.10
2018-08-02T12:59:06.770Z,48.00
2018-08-02T13:01:35.067Z,46.90
2018-08-02T13:04:02.578Z,46.90
2018-08-02T13:06:30.407Z,46.60
2018-08-02T13:08:58.334Z,46.00
2018-08-02T13:11:25.918Z,45.80
2018-08-02T13:13:53.741Z,45.60
2018-08-02T13:16:21.266Z,45.80
2018-08-02T13:18:48.805Z,44.90
2018-08-02T13:21:17.307Z,45.70
2018-08-02T13:23:45.620Z,44.60
2018-08-02T13:26:13.155Z,45.60
2018-08-02T13:28:40.708Z,45.00
2018-08-02T13:31:08.815Z,45.50
2018-08-02T13:33:37.559Z,45.60
2018-08-02T13:36:05.169Z,44.90
2018-08-02T13:38:33.055Z,44.10
2018-08-02T13:41:00.948Z,43.30
2018-08-02T13:43:28.685Z,43.90
2018-08-02T13:48:24.991Z,43.90
2018-08-02T13:50:52.747Z,44.40
2018-08-02T13:53:20.352Z,44.20
2018-08-02T13:55:48.251Z,43.90
2018-08-02T13:58:15.814Z,43.50
2018-08-02T14:00:43.703Z,43.40
2018-08-02T14:03:11.227Z,43.70
2018-08-02T14:05:38.744Z,42.80
2018-08-02T14:08:06.683Z,42.90
2018-08-02T14:10:34.216Z,44.30
2018-08-02T14:13:02.318Z,43.70
2018-08-02T14:15:29.854Z,44.20
2018-08-02T14:17:57.786Z,43.40
2018-08-02T14:20:25.830Z,42.90
2018-08-02T14:22:54.318Z,43.40
2018-08-02T14:25:21.831Z,43.80
2018-08-02T14:27:49.669Z,44.30
2018-08-02T14:30:17.267Z,45.60
2018-08-02T14:32:45.315Z,46.30
2018-08-02T14:35:12.834Z,46.00
2018-08-02T14:37:40.623Z,46.10
2018-08-02T14:40:08.573Z,46.20
2018-08-02T14:42:36.178Z,45.60
2018-08-02T14:45:04.755Z,46.20
2018-08-02T14:47:32.351Z,45.50
2018-08-02T14:50:00.401Z,45.50
2018-08-02T14:52:27.917Z,44.80
2018-08-02T14:54:55.444Z,46.00
2018-08-02T14:57:23.309Z,50.00
2018-08-02T14:59:50.941Z,52.70
2018-08-02T15:02:18.528Z,54.50
2018-08-02T15:04:46.246Z,57.00
2018-08-02T15:07:13.823Z,59.80
2018-08-02T15:09:41.662Z,60.40
2018-08-02T15:12:09.385Z,62.80
2018-08-02T15:14:37.268Z,63.70
2018-08-02T15:17:05.362Z,64.50
2018-08-02T15:19:34.008Z,66.40
2018-08-02T15:24:31.073Z,65.90
2018-08-02T15:26:59.616Z,65.60
2018-08-02T15:29:27.666Z,66.50
2018-08-02T15:31:55.259Z,66.90
2018-08-02T15:34:23.331Z,68.30
2018-08-02T15:36:51.417Z,68.50
2018-08-02T15:39:19.344Z,68.20
2018-08-02T15:44:14.890Z,66.50
2018-08-02T15:46:42.432Z,66.20
2018-08-02T15:49:10.432Z,66.70
2018-08-02T15:51:37.961Z,66.90
2018-08-02T15:54:05.507Z,68.80
2018-08-02T15:56:34.251Z,70.80
2018-08-02T16:01:30.303Z,72.70
2018-08-02T16:03:57.819Z,72.50
2018-08-02T16:06:25.339Z,71.80
2018-08-02T16:08:53.327Z,71.90
2018-08-02T16:11:21.225Z,72.30
2018-08-02T16:13:49.172Z,71.80
2018-08-02T16:16:17.511Z,73.00
2018-08-02T16:21:13.295Z,72.20
2018-08-02T16:23:41.235Z,70.80
2018-08-02T16:28:37.342Z,67.90
2018-08-02T16:31:05.518Z,66.10
2018-08-02T16:33:33.652Z,65.50
2018-08-02T16:36:01.811Z,65.50
2018-08-02T16:38:29.795Z,65.20
2018-08-02T16:40:58.105Z,65.80
2018-08-02T16:43:26.599Z,67.30
2018-08-02T16:45:54.674Z,68.20
2018-08-02T16:48:22.459Z,68.70
2018-08-02T16:50:49.985Z,69.00
2018-08-02T16:53:18.179Z,68.90
2018-08-02T16:55:45.734Z,69.10
2018-08-02T16:58:13.691Z,70.20
2018-08-02T17:00:41.858Z,70.10
2018-08-02T17:05:36.883Z,71.40
2018-08-02T17:08:05.174Z,71.20
2018-08-02T17:10:33.459Z,71.60
2018-08-02T17:17:56.936Z,72.80
2018-08-02T17:20:25.164Z,73.50
2018-08-02T17:22:53.330Z,72.30
2018-08-02T17:25:21.455Z,72.80
2018-08-02T17:27:49.546Z,73.10
2018-08-02T17:30:17.043Z,72.80
2018-08-02T17:32:45.525Z,72.90
2018-08-02T17:37:41.191Z,72.50
2018-08-02T17:40:09.072Z,72.80
2018-08-02T17:42:37.090Z,73.10
2018-08-02T17:45:06.674Z,73.70
2018-08-02T17:47:34.722Z,73.40
2018-08-02T17:50:02.285Z,75.30
2018-08-02T17:52:30.549Z,74.60
2018-08-02T17:57:25.532Z,74.70
2018-08-02T17:59:53.098Z,76.90
2018-08-02T18:02:20.794Z,75.40
2018-08-02T18:04:48.394Z,75.80
2018-08-02T18:07:16.432Z,76.10
2018-08-02T18:12:12.415Z,76.50
2018-08-02T18:14:40.373Z,77.30
2018-08-02T18:17:08.293Z,78.00
2018-08-02T18:19:36.479Z,77.50
2018-08-02T18:22:04.714Z,77.40
2018-08-02T18:24:32.717Z,77.80
2018-08-02T18:27:00.678Z,78.10
2018-08-02T18:29:29.026Z,77.70
2018-08-02T18:34:26.110Z,78.00
2018-08-02T18:36:53.737Z,78.20
2018-08-02T18:39:21.874Z,79.00
2018-08-02T18:41:50.017Z,79.20
2018-08-02T18:49:13.413Z,79.60
2018-08-02T18:51:40.950Z,80.80
2018-08-02T18:54:09.197Z,80.20
2018-08-02T18:56:36.741Z,80.80
2018-08-02T18:59:04.393Z,80.30
2018-08-02T19:08:56.266Z,81.80
2018-08-02T19:11:23.837Z,81.70
2018-08-02T19:13:52.456Z,81.30
2018-08-02T19:16:20.442Z,84.00
2018-08-02T19:18:48.417Z,83.00
2018-08-02T19:21:16.587Z,84.50
2018-08-02T19:23:44.445Z,84.80
2018-08-02T19:28:40.437Z,82.40
2018-08-02T19:31:07.957Z,83.80
2018-08-02T19:36:04.036Z,83.20
2018-08-02T19:38:32.398Z,83.80
2018-08-02T19:41:00.361Z,83.30
2018-08-02T19:43:28.768Z,83.30
2018-08-02T19:45:56.754Z,83.40
2018-08-02T19:48:24.576Z,83.30
2018-08-02T19:50:53.400Z,83.90
2018-08-02T19:53:21.613Z,83.80
2018-08-02T19:55:49.932Z,83.80
2018-08-02T19:58:17.534Z,83.80
2018-08-02T20:00:45.901Z,84.70
2018-08-02T20:03:13.961Z,84.10
2018-08-02T20:05:41.817Z,84.40
2018-08-02T20:08:09.697Z,84.10
2018-08-02T20:10:38.195Z,84.30
2018-08-02T20:13:07.841Z,84.30
2018-08-02T20:15:37.621Z,85.60
2018-08-02T20:18:06.885Z,84.00
2018-08-02T20:23:03.280Z,84.30
2018-08-02T20:25:32.050Z,84.50
2018-08-02T20:28:00.641Z,84.20
2018-08-02T20:30:29.161Z,84.10
2018-08-02T20:32:57.892Z,84.70
2018-08-02T20:35:25.934Z,84.20
2018-08-02T20:37:53.723Z,84.10
2018-08-02T20:40:22.037Z,84.30
2018-08-02T20:42:50.287Z,84.40
2018-08-02T20:45:19.613Z,84.70
2018-08-02T20:47:48.160Z,84.80
2018-08-02T20:50:16.114Z,84.40
2018-08-02T20:57:39.126Z,85.30
2018-08-02T21:00:06.777Z,85.10
2018-08-02T21:02:35.134Z,84.90
2018-08-02T21:05:03.681Z,84.70
2018-08-02T21:07:31.595Z,84.20
2018-08-02T21:09:59.456Z,84.10
2018-08-02T21:12:27.790Z,83.60
2018-08-02T21:14:56.685Z,84.10
2018-08-02T21:17:25.587Z,84.40
2018-08-02T21:19:53.272Z,84.50
2018-08-02T21:22:21.688Z,84.70
2018-08-02T21:24:49.312Z,84.90
2018-08-02T21:27:17.248Z,84.70
2018-08-02T21:29:44.775Z,84.30
2018-08-02T21:32:12.800Z,84.40
2018-08-02T21:34:40.677Z,84.60
2018-08-02T21:37:08.201Z,84.70
2018-08-02T21:39:36.085Z,84.50
2018-08-02T21:42:03.776Z,84.10
2018-08-02T21:44:31.942Z,84.20
2018-08-02T21:49:29.070Z,84.30
2018-08-02T21:51:57.089Z,84.10
2018-08-02T21:56:52.681Z,83.90
2018-08-02T21:59:20.717Z,83.80
2018-08-02T22:01:48.325Z,83.40
2018-08-02T22:04:15.855Z,83.40
2018-08-02T22:06:47.938Z,83.00
2018-08-02T22:09:16.167Z,83.00
2018-08-02T22:11:49.819Z,83.20
2018-08-02T22:14:24.618Z,83.20
2018-08-02T22:16:52.198Z,83.10
2018-08-02T22:19:20.246Z,83.10
2018-08-02T22:21:48.529Z,83.30
2018-08-02T22:24:17.129Z,83.20
2018-08-02T22:26:45.141Z,83.20
2018-08-02T22:29:12.657Z,83.20
2018-08-02T22:31:40.658Z,83.00
2018-08-02T22:34:08.709Z,83.00
2018-08-02T22:36:36.324Z,82.90
2018-08-02T22:39:06.694Z,83.00
2018-08-02T22:44:02.243Z,82.60
2018-08-02T22:46:31.523Z,82.60
2018-08-02T22:48:59.599Z,82.20
2018-08-02T22:51:27.129Z,82.40
2018-08-02T22:53:54.721Z,82.50
2018-08-02T22:56:22.722Z,82.50
2018-08-02T22:58:50.618Z,82.50
2018-08-02T23:01:18.112Z,82.80
2018-08-02T23:03:46.096Z,82.50
2018-08-02T23:06:14.099Z,82.50
2018-08-02T23:11:09.748Z,82.50
2018-08-02T23:13:37.632Z,82.70
2018-08-02T23:16:05.245Z,83.20
2018-08-02T23:18:32.758Z,83.60
2018-08-02T23:21:00.934Z,83.30
2018-08-02T23:23:29.023Z,83.60
2018-08-02T23:25:57.898Z,83.30
2018-08-02T23:28:25.400Z,83.70
2018-08-02T23:30:52.890Z,83.50
2018-08-02T23:33:20.768Z,83.60
2018-08-02T23:35:48.652Z,84.40
2018-08-02T23:38:16.178Z,83.40
2018-08-02T23:40:44.245Z,83.70
2018-08-02T23:43:11.740Z,83.70
2018-08-02T23:45:39.545Z,84.00
2018-08-02T23:48:08.018Z,84.40
2018-08-02T23:53:04.552Z,83.90
2018-08-02T23:55:32.520Z,84.20
2018-08-02T23:58:00.029Z,84.30
